createdAt,value
2022-09-21T00:00:49.192Z,4.70
2022-09-21T00:03:17.589Z,4.88
2022-09-21T00:05:46.248Z,4.38
2022-09-21T00:08:15.103Z,4.63
2022-09-21T00:10:42.839Z,4.82
2022-09-21T00:13:13.377Z,5.10
2022-09-21T00:15:41.841Z,5.93
2022-09-21T00:18:11.192Z,5.45
2022-09-21T00:20:43.468Z,5.57
2022-09-21T00:23:11.420Z,5.25
2022-09-21T00:25:39.441Z,5.47
2022-09-21T00:28:07.152Z,5.00
2022-09-21T00:30:36.460Z,4.80
2022-09-21T00:33:04.316Z,4.80
2022-09-21T00:35:32.111Z,4.68
2022-09-21T00:38:02.029Z,4.78
2022-09-21T00:40:30.667Z,5.13
2022-09-21T00:43:12.780Z,4.50
2022-09-21T00:45:42.810Z,4.65
2022-09-21T00:48:10.887Z,4.80
2022-09-21T00:50:41.958Z,4.65
2022-09-21T00:53:09.941Z,4.88
2022-09-21T00:55:42.885Z,5.05
2022-09-21T00:58:16.320Z,4.10
2022-09-21T01:00:45.515Z,4.47
2022-09-21T01:03:14.353Z,4.55
2022-09-21T01:05:42.046Z,4.40
2022-09-21T01:08:12.975Z,5.05
2022-09-21T01:11:04.907Z,5.00
2022-09-21T01:13:43.296Z,4.45
2022-09-21T01:16:16.343Z,4.53
2022-09-21T01:18:51.609Z,5.13
2022-09-21T01:21:22.490Z,5.35
2022-09-21T01:24:19.584Z,4.93
2022-09-21T01:27:19.217Z,4.97
2022-09-21T01:29:54.254Z,5.63
2022-09-21T01:32:26.872Z,5.28
2022-09-21T01:35:00.720Z,5.00
2022-09-21T01:37:33.997Z,4.93
2022-09-21T01:40:05.756Z,5.00
2022-09-21T01:42:35.623Z,5.18
2022-09-21T01:45:08.813Z,5.18
2022-09-21T01:47:38.642Z,5.72
2022-09-21T01:50:10.536Z,5.07
2022-09-21T01:52:43.300Z,5.05
2022-09-21T01:55:16.277Z,5.05
2022-09-21T01:57:50.957Z,5.10
2022-09-21T02:00:20.284Z,4.95
2022-09-21T02:02:52.112Z,5.57
2022-09-21T02:05:23.531Z,5.72
2022-09-21T02:07:53.672Z,5.40
2022-09-21T02:10:25.303Z,6.68
2022-09-21T02:12:56.782Z,5.47
2022-09-21T02:15:31.031Z,6.03
2022-09-21T02:18:06.655Z,5.60
2022-09-21T02:20:39.304Z,5.53
2022-09-21T02:23:17.787Z,5.03
2022-09-21T02:25:53.376Z,5.28
2022-09-21T02:28:31.378Z,5.78
2022-09-21T02:31:08.905Z,5.40
2022-09-21T02:33:46.809Z,5.50
2022-09-21T02:36:23.264Z,5.50
2022-09-21T02:38:54.540Z,4.88
2022-09-21T02:41:29.143Z,5.85
2022-09-21T02:44:02.711Z,5.30
2022-09-21T02:46:38.929Z,5.50
2022-09-21T02:49:10.960Z,5.38
2022-09-21T02:51:44.219Z,5.57
2022-09-21T02:54:16.715Z,5.55
2022-09-21T02:56:48.673Z,5.35
2022-09-21T02:59:17.546Z,5.65
2022-09-21T03:01:46.990Z,5.65
2022-09-21T03:04:14.760Z,5.38
2022-09-21T03:06:42.453Z,5.82
2022-09-21T03:09:10.609Z,5.72
2022-09-21T03:11:38.979Z,6.03
2022-09-21T03:14:08.756Z,5.45
2022-09-21T03:16:36.707Z,5.43
2022-09-21T03:19:06.619Z,5.50
2022-09-21T03:21:34.328Z,5.68
2022-09-21T03:24:02.471Z,5.57
2022-09-21T03:26:30.200Z,6.15
2022-09-21T03:28:57.992Z,6.38
2022-09-21T03:31:25.797Z,5.95
2022-09-21T03:33:53.889Z,5.60
2022-09-21T03:36:22.985Z,5.30
2022-09-21T03:38:50.683Z,5.63
2022-09-21T03:41:18.832Z,5.82
2022-09-21T03:43:46.568Z,5.57
2022-09-21T03:46:14.328Z,5.63
2022-09-21T03:48:42.438Z,5.40
2022-09-21T03:51:10.572Z,5.82
2022-09-21T03:53:39.672Z,5.07
2022-09-21T03:56:07.432Z,5.53
2022-09-21T03:58:35.197Z,5.80
2022-09-21T04:01:03.803Z,6.07
2022-09-21T04:03:31.707Z,6.05
2022-09-21T04:05:59.429Z,6.35
2022-09-21T04:08:27.536Z,5.80
2022-09-21T04:10:56.726Z,5.47
2022-09-21T04:13:24.965Z,5.75
2022-09-21T04:15:52.880Z,5.93
2022-09-21T04:18:20.653Z,6.43
2022-09-21T04:20:48.571Z,5.95
2022-09-21T04:23:16.291Z,5.80
2022-09-21T04:25:45.033Z,5.35
2022-09-21T04:28:14.064Z,5.72
2022-09-21T04:30:41.855Z,5.75
2022-09-21T04:33:09.774Z,5.90
2022-09-21T04:35:37.519Z,5.50
2022-09-21T04:38:05.321Z,5.80
2022-09-21T04:40:33.078Z,5.53
2022-09-21T04:43:00.914Z,6.13
2022-09-21T04:45:29.952Z,6.28
2022-09-21T04:47:57.997Z,5.32
2022-09-21T04:50:25.913Z,5.22
2022-09-21T04:53:04.374Z,5.18
2022-09-21T04:55:32.127Z,4.95
2022-09-21T04:57:59.837Z,5.18
2022-09-21T05:00:28.203Z,5.28
2022-09-21T05:02:58.235Z,4.72
2022-09-21T05:05:26.151Z,5.03
2022-09-21T05:07:54.192Z,5.38
2022-09-21T05:10:21.097Z,6.03
2022-09-21T05:12:48.896Z,5.65
2022-09-21T05:15:17.080Z,6.05
2022-09-21T05:17:44.899Z,5.68
2022-09-21T05:20:14.472Z,5.78
2022-09-21T05:22:42.187Z,5.60
2022-09-21T05:25:10.861Z,6.30
2022-09-21T05:27:38.736Z,6.40
2022-09-21T05:30:07.959Z,7.00
2022-09-21T05:32:45.122Z,6.82
2022-09-21T05:35:25.035Z,7.05
2022-09-21T05:37:58.267Z,6.50
2022-09-21T05:40:26.919Z,6.57
2022-09-21T05:42:56.162Z,7.00
2022-09-21T05:45:24.511Z,6.93
2022-09-21T05:47:59.496Z,7.45
2022-09-21T05:50:47.425Z,8.40
2022-09-21T05:53:30.956Z,7.95
2022-09-21T05:56:00.876Z,7.47
2022-09-21T05:58:37.984Z,8.43
2022-09-21T06:01:21.770Z,8.20
2022-09-21T06:03:50.156Z,8.35
2022-09-21T06:06:20.822Z,8.93
2022-09-21T06:08:48.749Z,8.65
2022-09-21T06:11:16.757Z,8.70
2022-09-21T06:13:44.461Z,8.88
2022-09-21T06:16:12.306Z,9.00
2022-09-21T06:18:40.425Z,9.60
2022-09-21T06:21:09.475Z,8.75
2022-09-21T06:23:38.893Z,9.02
2022-09-21T06:26:07.045Z,9.75
2022-09-21T06:28:34.822Z,9.82
2022-09-21T06:31:02.585Z,9.70
2022-09-21T06:33:30.344Z,9.60
2022-09-21T06:35:59.436Z,9.80
2022-09-21T06:38:29.210Z,9.75
2022-09-21T06:41:03.717Z,9.25
2022-09-21T06:43:32.125Z,9.70
2022-09-21T06:46:01.581Z,9.77
2022-09-21T06:48:30.833Z,9.00
2022-09-21T06:50:59.622Z,10.07
2022-09-21T06:53:28.273Z,9.82
2022-09-21T06:56:00.949Z,9.85
2022-09-21T06:58:31.208Z,10.65
2022-09-21T07:00:59.153Z,9.25
2022-09-21T07:03:27.113Z,9.65
2022-09-21T07:05:54.824Z,10.50
2022-09-21T07:11:11.573Z,10.63
2022-09-21T07:13:40.909Z,10.77
2022-09-21T07:16:10.001Z,10.02
2022-09-21T07:18:43.529Z,10.15
2022-09-21T07:21:13.082Z,10.27
2022-09-21T07:23:40.978Z,14.15
2022-09-21T07:26:11.626Z,17.40
2022-09-21T07:28:41.092Z,21.65
2022-09-21T07:31:10.155Z,22.90
2022-09-21T07:33:38.103Z,10.85
2022-09-21T07:36:10.433Z,9.85
2022-09-21T07:38:40.366Z,8.95
2022-09-21T07:41:08.579Z,8.45
2022-09-21T07:43:39.209Z,8.45
2022-09-21T07:46:09.257Z,7.18
2022-09-21T07:48:37.247Z,7.70
2022-09-21T07:51:06.692Z,7.22
2022-09-21T07:53:34.495Z,7.13
2022-09-21T07:56:03.436Z,6.45
2022-09-21T07:58:48.999Z,6.32
2022-09-21T08:01:18.544Z,6.60
2022-09-21T08:03:46.364Z,6.88
2022-09-21T08:06:14.278Z,6.72
2022-09-21T08:08:42.337Z,6.65
2022-09-21T08:11:11.795Z,6.50
2022-09-21T08:13:39.778Z,6.30
2022-09-21T08:16:07.990Z,6.80
2022-09-21T08:18:40.303Z,6.65
2022-09-21T08:21:12.129Z,6.13
2022-09-21T08:23:42.784Z,6.20
2022-09-21T08:26:18.578Z,6.10
2022-09-21T08:31:19.470Z,6.13
2022-09-21T08:33:49.684Z,6.10
2022-09-21T08:36:18.236Z,5.93
2022-09-21T08:38:46.448Z,6.00
2022-09-21T08:41:19.851Z,5.50
2022-09-21T08:43:52.850Z,5.80
2022-09-21T08:46:24.656Z,5.55
2022-09-21T08:48:59.432Z,4.90
2022-09-21T08:51:31.248Z,5.10
2022-09-21T08:54:02.247Z,4.82
2022-09-21T08:56:53.285Z,4.80
2022-09-21T08:59:17.713Z,4.53
2022-09-21T09:01:58.329Z,4.80
2022-09-21T09:04:46.835Z,4.40
2022-09-21T09:07:32.123Z,3.97
2022-09-21T09:10:11.756Z,3.85
2022-09-21T09:12:53.964Z,3.50
2022-09-21T09:15:38.024Z,3.40
2022-09-21T09:18:10.842Z,3.20
2022-09-21T09:20:44.440Z,3.60
2022-09-21T09:23:16.834Z,2.80
2022-09-21T09:25:48.324Z,2.60
2022-09-21T09:28:25.751Z,2.63
2022-09-21T09:31:00.182Z,3.08
2022-09-21T09:33:33.817Z,3.00
2022-09-21T09:36:05.618Z,3.08
2022-09-21T09:38:38.446Z,2.63
2022-09-21T09:41:35.222Z,2.60
2022-09-21T09:44:22.004Z,2.63
2022-09-21T09:47:01.184Z,2.58
2022-09-21T09:49:39.583Z,2.35
2022-09-21T09:52:12.057Z,2.22
2022-09-21T09:54:39.943Z,2.58
2022-09-21T09:57:10.821Z,2.08
2022-09-21T09:59:44.747Z,2.45
2022-09-21T10:02:23.010Z,2.10
2022-09-21T10:05:01.475Z,2.20
2022-09-21T10:07:38.300Z,2.13
2022-09-21T10:10:34.522Z,2.40
2022-09-21T10:13:14.398Z,2.00
2022-09-21T10:15:46.513Z,1.85
2022-09-21T10:18:22.020Z,1.70
2022-09-21T10:20:56.788Z,1.90
2022-09-21T10:23:26.452Z,1.25
2022-09-21T10:25:57.571Z,1.27
2022-09-21T10:28:26.085Z,1.70
2022-09-21T10:31:10.021Z,1.60
2022-09-21T10:33:49.900Z,1.60
2022-09-21T10:36:30.111Z,1.38
2022-09-21T10:39:12.027Z,1.20
2022-09-21T10:41:39.977Z,1.13
2022-09-21T10:44:18.027Z,1.00
2022-09-21T10:46:46.952Z,1.30
2022-09-21T10:49:21.396Z,1.00
2022-09-21T10:51:51.779Z,1.15
2022-09-21T10:54:25.001Z,1.00
2022-09-21T10:56:55.457Z,1.00
2022-09-21T10:59:26.596Z,1.13
2022-09-21T11:01:56.980Z,1.05
2022-09-21T11:04:33.842Z,1.27
2022-09-21T11:07:06.270Z,0.93
2022-09-21T11:09:39.336Z,0.98
2022-09-21T11:12:26.140Z,0.85
2022-09-21T11:15:01.923Z,0.77
2022-09-21T11:17:37.559Z,0.90
2022-09-21T11:20:17.404Z,0.80
2022-09-21T11:22:57.429Z,0.90
2022-09-21T11:25:42.177Z,0.70
2022-09-21T11:28:15.869Z,0.80
2022-09-21T11:31:06.858Z,1.05
2022-09-21T11:33:52.855Z,1.05
2022-09-21T11:36:27.639Z,1.30
2022-09-21T11:39:02.260Z,0.80
2022-09-21T11:44:21.301Z,1.00
2022-09-21T11:46:55.600Z,1.00
2022-09-21T11:49:46.277Z,0.70
2022-09-21T11:52:32.884Z,1.00
2022-09-21T11:55:59.013Z,1.00
2022-09-21T11:58:39.692Z,1.00
2022-09-21T12:01:13.349Z,1.23
2022-09-21T12:03:51.539Z,1.10
2022-09-21T12:06:33.364Z,1.13
2022-09-21T12:09:21.099Z,0.90
2022-09-21T12:11:56.473Z,1.10
2022-09-21T12:14:34.792Z,0.77
2022-09-21T12:17:09.048Z,0.77
2022-09-21T12:19:46.433Z,1.08
2022-09-21T12:22:19.906Z,0.80
2022-09-21T12:24:51.805Z,0.88
2022-09-21T12:27:28.686Z,1.00
2022-09-21T12:30:03.362Z,0.70
2022-09-21T12:32:47.253Z,1.05
2022-09-21T12:35:18.174Z,0.63
2022-09-21T12:37:50.889Z,0.95
2022-09-21T12:40:27.735Z,1.00
2022-09-21T12:43:04.171Z,0.60
2022-09-21T12:45:37.331Z,0.85
2022-09-21T12:48:12.348Z,0.80
2022-09-21T12:50:44.742Z,0.88
2022-09-21T12:53:18.830Z,2.35
2022-09-21T12:55:54.106Z,0.80
2022-09-21T12:58:35.093Z,0.90
2022-09-21T13:01:17.322Z,0.95
2022-09-21T13:03:56.031Z,0.70
2022-09-21T13:06:50.438Z,0.80
2022-09-21T13:09:21.048Z,0.77
2022-09-21T13:11:56.542Z,0.75
2022-09-21T13:14:26.220Z,0.93
2022-09-21T13:17:02.836Z,0.80
2022-09-21T13:19:33.467Z,0.65
2022-09-21T13:22:24.581Z,1.10
2022-09-21T13:25:02.939Z,0.73
2022-09-21T13:28:01.697Z,0.60
2022-09-21T13:30:32.921Z,0.60
2022-09-21T13:33:04.152Z,0.90
2022-09-21T13:36:02.022Z,0.40
2022-09-21T13:38:34.225Z,0.60
2022-09-21T13:41:03.655Z,0.80
2022-09-21T13:43:48.078Z,0.80
2022-09-21T13:49:07.037Z,0.70
2022-09-21T13:51:35.584Z,0.73
2022-09-21T13:54:04.738Z,0.60
2022-09-21T13:56:33.431Z,0.88
2022-09-21T13:59:01.291Z,0.90
2022-09-21T14:01:49.955Z,0.60
2022-09-21T14:04:23.724Z,0.90
2022-09-21T14:06:53.372Z,1.10
2022-09-21T14:09:25.746Z,0.90
2022-09-21T14:11:59.792Z,0.52
2022-09-21T14:14:31.509Z,0.60
2022-09-21T14:17:00.620Z,0.82
2022-09-21T14:20:08.198Z,0.60
2022-09-21T14:22:42.383Z,0.60
2022-09-21T14:25:32.282Z,0.50
2022-09-21T14:28:04.430Z,0.75
2022-09-21T14:30:35.771Z,1.00
2022-09-21T14:33:23.540Z,0.90
2022-09-21T14:35:52.425Z,0.90
2022-09-21T14:38:25.573Z,0.75
2022-09-21T14:40:57.476Z,1.02
2022-09-21T14:43:28.923Z,0.70
2022-09-21T14:46:37.224Z,0.65
2022-09-21T14:49:21.092Z,0.60
2022-09-21T14:52:04.222Z,0.85
2022-09-21T14:54:51.069Z,0.40
2022-09-21T14:57:51.068Z,0.75
2022-09-21T15:00:23.280Z,0.52
2022-09-21T15:03:06.263Z,0.60
2022-09-21T15:05:38.617Z,0.40
2022-09-21T15:08:45.784Z,0.30
2022-09-21T15:11:24.785Z,0.50
2022-09-21T15:14:07.600Z,0.60
2022-09-21T15:16:41.595Z,0.50
2022-09-21T15:19:21.696Z,0.73
2022-09-21T15:21:51.166Z,0.52
2022-09-21T15:24:22.598Z,0.50
2022-09-21T15:26:53.842Z,0.50
2022-09-21T15:29:26.121Z,0.63
2022-09-21T15:31:54.605Z,0.60
2022-09-21T15:34:23.999Z,0.63
2022-09-21T15:36:52.767Z,0.70
2022-09-21T15:39:26.729Z,0.70
2022-09-21T15:42:18.433Z,0.65
2022-09-21T15:44:48.577Z,0.60
2022-09-21T15:47:19.891Z,0.60
2022-09-21T15:49:47.976Z,1.05
2022-09-21T15:52:25.547Z,0.40
2022-09-21T15:54:57.050Z,0.57
2022-09-21T15:57:36.429Z,0.60
2022-09-21T16:00:18.161Z,0.82
2022-09-21T16:03:04.326Z,0.70
2022-09-21T16:05:34.940Z,0.50
2022-09-21T16:08:07.907Z,0.68
2022-09-21T16:10:41.020Z,0.98
2022-09-21T16:13:36.602Z,0.88
2022-09-21T16:16:06.173Z,0.68
2022-09-21T16:18:43.011Z,0.70
2022-09-21T16:21:20.264Z,0.75
2022-09-21T16:23:49.145Z,0.85
2022-09-21T16:26:21.618Z,0.80
2022-09-21T16:28:58.216Z,1.30
2022-09-21T16:31:32.152Z,1.23
2022-09-21T16:34:32.951Z,1.50
2022-09-21T16:37:02.218Z,1.42
2022-09-21T16:39:30.081Z,1.00
2022-09-21T16:42:02.251Z,1.10
2022-09-21T16:44:40.220Z,1.10
2022-09-21T16:47:14.392Z,1.20
2022-09-21T16:49:42.645Z,1.33
2022-09-21T16:52:11.192Z,1.45
2022-09-21T16:54:38.989Z,1.02
2022-09-21T16:57:07.432Z,1.55
2022-09-21T16:59:36.548Z,1.40
2022-09-21T17:02:05.905Z,1.60
2022-09-21T17:04:35.069Z,2.60
2022-09-21T17:07:04.968Z,1.70
2022-09-21T17:09:35.359Z,1.40
2022-09-21T17:12:04.360Z,1.20
2022-09-21T17:14:35.404Z,1.50
2022-09-21T17:17:08.584Z,1.40
2022-09-21T17:19:36.795Z,1.02
2022-09-21T17:22:06.760Z,1.42
2022-09-21T17:24:49.897Z,1.50
2022-09-21T17:27:19.298Z,1.45
2022-09-21T17:29:49.494Z,1.50
2022-09-21T17:32:21.403Z,1.30
2022-09-21T17:34:56.150Z,1.35
2022-09-21T17:37:24.136Z,1.60
2022-09-21T17:39:53.502Z,1.70
2022-09-21T17:42:24.901Z,1.38
2022-09-21T17:45:02.281Z,1.40
2022-09-21T17:47:33.839Z,1.60
2022-09-21T17:50:09.614Z,1.55
2022-09-21T17:52:55.309Z,1.48
2022-09-21T17:55:23.613Z,1.70
2022-09-21T17:58:00.715Z,1.85
2022-09-21T18:00:37.116Z,1.58
2022-09-21T18:03:20.717Z,1.90
2022-09-21T18:05:50.627Z,3.97
2022-09-21T18:08:19.121Z,4.22
2022-09-21T18:11:01.844Z,5.90
2022-09-21T18:13:39.120Z,6.65
2022-09-21T18:16:21.795Z,5.20
2022-09-21T18:19:00.651Z,4.57
2022-09-21T18:21:28.968Z,4.43
2022-09-21T18:24:11.849Z,4.32
2022-09-21T18:26:40.268Z,3.47
2022-09-21T18:29:37.988Z,3.17
2022-09-21T18:32:19.772Z,2.53
2022-09-21T18:35:24.772Z,2.90
2022-09-21T18:38:03.750Z,3.00
2022-09-21T18:40:39.833Z,3.20
2022-09-21T18:43:22.561Z,3.00
2022-09-21T18:45:56.660Z,4.88
2022-09-21T18:48:51.596Z,6.95
2022-09-21T18:53:55.758Z,6.65
2022-09-21T18:56:24.856Z,7.07
2022-09-21T18:58:53.398Z,8.15
2022-09-21T19:01:22.699Z,6.88
2022-09-21T19:03:51.220Z,5.43
2022-09-21T19:06:36.980Z,5.07
2022-09-21T19:09:37.903Z,3.67
2022-09-21T19:12:21.602Z,4.90
2022-09-21T19:15:06.888Z,6.78
2022-09-21T19:17:58.816Z,3.25
2022-09-21T19:20:41.677Z,3.50
2022-09-21T19:23:25.179Z,3.42
2022-09-21T19:25:57.895Z,5.05
2022-09-21T19:28:50.173Z,4.22
2022-09-21T19:31:19.859Z,3.47
2022-09-21T19:33:50.866Z,3.20
2022-09-21T19:36:20.913Z,3.30
2022-09-21T19:38:50.662Z,2.85
2022-09-21T19:41:36.003Z,2.50
2022-09-21T19:46:44.199Z,2.47
2022-09-21T19:49:18.298Z,2.65
2022-09-21T19:51:48.918Z,2.70
2022-09-21T19:54:38.118Z,2.30
2022-09-21T19:57:31.793Z,2.90
2022-09-21T20:00:00.898Z,2.90
2022-09-21T20:02:32.496Z,3.15
2022-09-21T20:05:06.388Z,5.13
2022-09-21T20:07:44.382Z,4.32
2022-09-21T20:10:45.352Z,3.60
2022-09-21T20:13:21.882Z,2.97
2022-09-21T20:15:53.015Z,2.70
2022-09-21T20:18:31.992Z,2.90
2022-09-21T20:21:00.499Z,5.07
2022-09-21T20:23:30.127Z,3.33
2022-09-21T20:26:04.520Z,3.90
2022-09-21T20:28:32.902Z,3.88
2022-09-21T20:31:00.898Z,3.63
2022-09-21T20:33:31.859Z,4.20
2022-09-21T20:36:00.046Z,5.57
2022-09-21T20:38:27.897Z,6.50
2022-09-21T20:40:55.644Z,7.55
2022-09-21T20:43:29.026Z,6.10
2022-09-21T20:46:00.076Z,5.40
2022-09-21T20:48:27.928Z,5.43
2022-09-21T20:50:56.843Z,4.82
2022-09-21T20:53:25.386Z,5.03
2022-09-21T20:55:55.496Z,4.43
2022-09-21T20:58:25.510Z,4.07
2022-09-21T21:00:58.623Z,4.03
2022-09-21T21:03:26.879Z,5.10
2022-09-21T21:05:54.605Z,5.63
2022-09-21T21:08:22.448Z,5.32
2022-09-21T21:10:50.141Z,5.25
2022-09-21T21:13:17.866Z,5.03
2022-09-21T21:15:46.940Z,5.25
2022-09-21T21:18:14.662Z,4.13
2022-09-21T21:20:42.391Z,3.67
2022-09-21T21:23:10.121Z,3.30
2022-09-21T21:25:37.988Z,3.80
2022-09-21T21:28:06.043Z,3.63
2022-09-21T21:30:33.822Z,3.50
2022-09-21T21:33:04.102Z,3.58
2022-09-21T21:35:32.099Z,3.90
2022-09-21T21:37:59.887Z,4.60
2022-09-21T21:40:27.612Z,3.72
2022-09-21T21:42:56.597Z,3.80
2022-09-21T21:45:24.568Z,3.90
2022-09-21T21:47:52.489Z,3.72
2022-09-21T21:50:21.575Z,3.88
2022-09-21T21:52:49.269Z,3.97
2022-09-21T21:55:17.027Z,3.85
2022-09-21T21:57:44.713Z,4.00
2022-09-21T22:00:13.951Z,3.58
2022-09-21T22:02:41.889Z,3.60
2022-09-21T22:05:10.374Z,3.42
2022-09-21T22:07:40.645Z,3.65
2022-09-21T22:10:09.838Z,3.70
2022-09-21T22:12:37.676Z,3.10
2022-09-21T22:15:06.111Z,3.60
2022-09-21T22:17:33.778Z,3.20
2022-09-21T22:20:01.756Z,3.40
2022-09-21T22:22:29.480Z,3.30
2022-09-21T22:24:58.590Z,3.30
2022-09-21T22:27:26.349Z,3.30
2022-09-21T22:29:54.048Z,3.80
2022-09-21T22:32:22.024Z,3.25
2022-09-21T22:34:51.023Z,3.40
2022-09-21T22:37:18.749Z,3.75
2022-09-21T22:39:46.543Z,3.05
2022-09-21T22:42:15.615Z,3.25
2022-09-21T22:44:43.301Z,3.25
2022-09-21T22:47:11.013Z,3.40
2022-09-21T22:49:38.788Z,3.65
2022-09-21T22:52:07.196Z,3.47
2022-09-21T22:54:34.944Z,3.58
2022-09-21T22:57:02.842Z,3.47
2022-09-21T22:59:31.900Z,3.72
2022-09-21T23:01:59.629Z,3.88
2022-09-21T23:04:27.416Z,3.58
2022-09-21T23:06:55.141Z,3.78
2022-09-21T23:09:23.325Z,3.50
2022-09-21T23:11:53.828Z,3.60
2022-09-21T23:14:22.708Z,3.83
2022-09-21T23:16:52.858Z,4.10
2022-09-21T23:19:20.824Z,3.75
2022-09-21T23:21:50.617Z,3.75
2022-09-21T23:24:18.883Z,3.60
2022-09-21T23:26:47.135Z,3.45
2022-09-21T23:29:16.520Z,3.40
2022-09-21T23:31:46.042Z,3.83
2022-09-21T23:34:16.272Z,3.70
2022-09-21T23:36:45.619Z,3.38
2022-09-21T23:39:14.933Z,3.47
2022-09-21T23:41:43.472Z,3.53
2022-09-21T23:44:11.250Z,3.70
2022-09-21T23:46:40.484Z,3.50
2022-09-21T23:49:08.411Z,3.95
2022-09-21T23:51:38.017Z,3.85
2022-09-21T23:54:06.770Z,3.55
2022-09-21T23:56:34.873Z,3.55
2022-09-21T23:59:03.402Z,3.42
